Terminal Aerodrome Forecast
Issued by NWS

Home | Current Version | Previous Version | Text Only | Print | Product List | Glossary On
Versions: 1 2 3 4 5 6 7 8 9 10 11 12 13 14
000
FTUS45 KABQ 281308 AAA
TAFAEG
TAF AMD
KAEG 281308Z 2813/2912 27008KT P6SM -SHRA OVC025
     FM281500 31012KT P6SM -SHRA OVC040
     FM281800 30014G22KT P6SM SHRA OVC040
     FM282200 30014KT P6SM SCT040 SCT070
     FM290000 32014G22KT P6SM SHRA OVC025
     FM290500 34025G35KT P6SM OVC030=

USA.gov is the U.S. government's official web portal to all federal, state and local government web resources and services.